Eiwamaru — JG5742 — position and weather

sailwx.info

Track history (hours):
 
Tides and Currents Weather Stations Pressure Air Temp Water Temp Dewpoint Dewpoint Depression Visibility Wind Speed Wind Dir Waves Ship Positions

Eiwamaru

Last reported at 2016-Apr-28 22:31 UTC. Time now 2016-Apr-29 03:58 UTC.
Position N 34°06' E 134°60'.

Length 80 m; draft 5.2 m.

Type: Ship (hazmat cat A). MMSI: 431101045.

Date/timePositionNaut miles runAvg speedWind from/ knotsBaromVisibWave heightAir tempDewpointWater temp
2016-Apr-28 22:31N 34°06' E 134°60'1413.4
2016-Apr-28 21:27N 34°20' E 134°60'1212.9
2016-Apr-28 20:33N 34°28' E 135°10'8 7.8
2016-Apr-28 19:32N 34°31' E 135°19'0 0.0
2016-Apr-28 18:31N 34°31' E 135°19'0 0.1
2016-Apr-28 17:33N 34°31' E 135°19'0 0.0
2016-Apr-28 16:33N 34°31' E 135°19'0 0.0
2016-Apr-28 15:33N 34°31' E 135°19'0 0.0
2016-Apr-28 14:33N 34°31' E 135°19'0 0.0
2016-Apr-28 13:33N 34°31' E 135°19'0 0.0
2016-Apr-28 12:33N 34°31' E 135°19'0 0.0
2016-Apr-28 11:33N 34°31' E 135°19'0 0.0
2016-Apr-28 10:33N 34°31' E 135°19'0 0.0
2016-Apr-28 09:32N 34°31' E 135°19'0 0.1
2016-Apr-28 08:33N 34°31' E 135°19'6 5.7
2016-Apr-28 07:32N 34°33' E 135°26'0 0.0
2016-Apr-28 06:33N 34°33' E 135°26'0 0.0
2016-Apr-28 05:32N 34°33' E 135°26'0 0.0
2016-Apr-28 04:33N 34°33' E 135°26'0 0.0
2016-Apr-28 03:32N 34°33' E 135°26'1 0.6
2016-Apr-28 02:33N 34°33' E 135°25'5 4.6
2016-Apr-28 01:33N 34°32' E 135°19'0 0.1
2016-Apr-28 00:33N 34°32' E 135°19'0 0.1
2016-Apr-27 23:33N 34°32' E 135°19'3 3.3
2016-Apr-27 22:31N 34°32' E 135°23'2 1.2
2016-Apr-27 21:15N 34°31' E 135°24'0 0.0
2016-Apr-27 20:16N 34°31' E 135°24'0 0.0
2016-Apr-27 18:24N 34°31' E 135°24'0 0.0
2016-Apr-27 17:30N 34°31' E 135°24'0 0.0
2016-Apr-27 16:31N 34°31' E 135°24'0 0.0
2016-Apr-27 15:14N 34°31' E 135°24'0 0.0
2016-Apr-27 10:22N 34°31' E 135°24'0 0.0
2016-Apr-27 09:25N 34°31' E 135°24'0 0.0
2016-Apr-27 03:30N 34°31' E 135°24'0 0.0
2016-Apr-26 23:05N 34°31' E 135°24'2 3.9
2016-Apr-26 22:33N 34°33' E 135°23'4 3.6
2016-Apr-26 21:33N 34°31' E 135°18'0 0.0
2016-Apr-26 20:33N 34°31' E 135°19'0 0.0
2016-Apr-26 19:33N 34°31' E 135°18'0 0.0
2016-Apr-26 18:33N 34°31' E 135°19'9 9.1
2016-Apr-26 17:33N 34°26' E 135°10'1312.1
2016-Apr-26 16:28N 34°16' E 134°60'1111.7
2016-Apr-26 15:32N 34°07' E 135°07'0 0.0
2016-Apr-26 14:33N 34°07' E 135°07'0 0.0
2016-Apr-26 13:33N 34°07' E 135°07'0 0.0
2016-Apr-26 12:33N 34°07' E 135°07'0 0.0
2016-Apr-26 11:33N 34°07' E 135°07'0 0.0
2016-Apr-26 10:33N 34°07' E 135°07'0 0.0
2016-Apr-26 09:33N 34°07' E 135°07'0 0.0
2016-Apr-26 08:33N 34°07' E 135°07'0 0.0
2016-Apr-26 07:33N 34°07' E 135°07'0 0.0
2016-Apr-26 06:33N 34°07' E 135°07'0 0.0
2016-Apr-26 05:33N 34°07' E 135°07'0 0.0
2016-Apr-26 04:28N 34°07' E 135°07'0 0.0
2016-Apr-26 03:30N 34°07' E 135°07'0 0.0
2016-Apr-26 02:33N 34°07' E 135°07'  
2016-Apr-23 19:33N 35°02' E 139°33'1312.8
2016-Apr-23 18:33N 35°10' E 139°45'1211.8
2016-Apr-23 17:33N 35°22' E 139°42'1212.2
2016-Apr-23 16:33N 35°30' E 139°53'7 7.4
2016-Apr-23 15:34N 35°31' E 140°02'0 0.0
2016-Apr-23 14:33N 35°31' E 140°02'0 0.0
2016-Apr-23 13:34N 35°31' E 140°02'0 0.0
2016-Apr-23 12:33N 35°31' E 140°02'1 1.4
2016-Apr-23 11:33N 35°32' E 140°01'0 0.1
2016-Apr-23 10:33N 35°32' E 140°01'0 0.0
2016-Apr-23 09:33N 35°32' E 140°01'0 0.0
2016-Apr-23 08:33N 35°32' E 140°01'0 0.0
2016-Apr-23 07:33N 35°32' E 140°01'0 0.1
2016-Apr-23 06:33N 35°32' E 140°01'0 0.0
2016-Apr-23 05:33N 35°32' E 140°01'0 0.0
2016-Apr-23 04:33N 35°32' E 140°01'0 0.0
2016-Apr-23 03:33N 35°32' E 140°01'0 0.0
2016-Apr-23 02:33N 35°32' E 140°01'2 1.6
2016-Apr-23 01:33N 35°32' E 140°03'0 0.1
2016-Apr-23 00:33N 35°32' E 140°03'0 0.0
2016-Apr-22 23:33N 35°32' E 140°03'0 0.1
2016-Apr-22 22:33N 35°32' E 140°03'3 2.7
2016-Apr-22 21:33N 35°33' E 140°00'0 0.0
2016-Apr-22 20:33N 35°33' E 140°00'0 0.0
2016-Apr-22 19:33N 35°33' E 140°00'0 0.0
2016-Apr-22 18:33N 35°33' E 140°00'0 0.0
2016-Apr-22 17:33N 35°33' E 140°00'0 0.0
2016-Apr-22 16:33N 35°33' E 140°00'0 0.0
2016-Apr-22 15:33N 35°33' E 140°00'7 6.9
2016-Apr-22 14:33N 35°29' E 139°53'1212.4
2016-Apr-22 13:33N 35°19' E 139°44'1211.7
2016-Apr-22 12:33N 35°07' E 139°45'6612.0
2016-Apr-22 07:04N 34°33' E 138°37'  
2016-Apr-19 03:18N 35°11' E 139°45'810.9
2016-Apr-19 02:33N 35°19' E 139°43'1111.3
2016-Apr-19 01:33N 35°30' E 139°48'1 1.2
2016-Apr-19 00:34N 35°31' E 139°46'0 0.0
2016-Apr-18 23:33N 35°31' E 139°46'0 0.0
2016-Apr-18 22:34N 35°31' E 139°46'  
Track history (hours):
 
Tides and Currents Weather Stations Pressure Air Temp Water Temp Dewpoint Dewpoint Depression Visibility Wind Speed Wind Dir Waves Ship Positions

Eiwamaru

Last reported at 2016-Apr-28 22:31 UTC. Time now 2016-Apr-29 03:58 UTC.
Position N 34°06' E 134°60'.

Length 80 m; draft 5.2 m.

Type: Ship (hazmat cat A). MMSI: 431101045.

Date/timePositionNaut miles runAvg speedWind from/ knotsBaromVisibWave heightAir tempDewpointWater temp
2016-Apr-28 22:31N 34°06' E 134°60'1413.4
2016-Apr-28 21:27N 34°20' E 134°60'1212.9
2016-Apr-28 20:33N 34°28' E 135°10'8 7.8
2016-Apr-28 19:32N 34°31' E 135°19'0 0.0
2016-Apr-28 18:31N 34°31' E 135°19'0 0.1
2016-Apr-28 17:33N 34°31' E 135°19'0 0.0
2016-Apr-28 16:33N 34°31' E 135°19'0 0.0
2016-Apr-28 15:33N 34°31' E 135°19'0 0.0
2016-Apr-28 14:33N 34°31' E 135°19'0 0.0
2016-Apr-28 13:33N 34°31' E 135°19'0 0.0
2016-Apr-28 12:33N 34°31' E 135°19'0 0.0
2016-Apr-28 11:33N 34°31' E 135°19'0 0.0
2016-Apr-28 10:33N 34°31' E 135°19'0 0.0
2016-Apr-28 09:32N 34°31' E 135°19'0 0.1
2016-Apr-28 08:33N 34°31' E 135°19'6 5.7
2016-Apr-28 07:32N 34°33' E 135°26'0 0.0
2016-Apr-28 06:33N 34°33' E 135°26'0 0.0
2016-Apr-28 05:32N 34°33' E 135°26'0 0.0
2016-Apr-28 04:33N 34°33' E 135°26'0 0.0
2016-Apr-28 03:32N 34°33' E 135°26'1 0.6
2016-Apr-28 02:33N 34°33' E 135°25'5 4.6
2016-Apr-28 01:33N 34°32' E 135°19'0 0.1
2016-Apr-28 00:33N 34°32' E 135°19'0 0.1
2016-Apr-27 23:33N 34°32' E 135°19'3 3.3
2016-Apr-27 22:31N 34°32' E 135°23'2 1.2
2016-Apr-27 21:15N 34°31' E 135°24'0 0.0
2016-Apr-27 20:16N 34°31' E 135°24'0 0.0
2016-Apr-27 18:24N 34°31' E 135°24'0 0.0
2016-Apr-27 17:30N 34°31' E 135°24'0 0.0
2016-Apr-27 16:31N 34°31' E 135°24'0 0.0
2016-Apr-27 15:14N 34°31' E 135°24'0 0.0
2016-Apr-27 10:22N 34°31' E 135°24'0 0.0
2016-Apr-27 09:25N 34°31' E 135°24'0 0.0
2016-Apr-27 03:30N 34°31' E 135°24'0 0.0
2016-Apr-26 23:05N 34°31' E 135°24'2 3.9
2016-Apr-26 22:33N 34°33' E 135°23'4 3.6
2016-Apr-26 21:33N 34°31' E 135°18'0 0.0
2016-Apr-26 20:33N 34°31' E 135°19'0 0.0
2016-Apr-26 19:33N 34°31' E 135°18'0 0.0
2016-Apr-26 18:33N 34°31' E 135°19'9 9.1
2016-Apr-26 17:33N 34°26' E 135°10'1312.1
2016-Apr-26 16:28N 34°16' E 134°60'1111.7
2016-Apr-26 15:32N 34°07' E 135°07'0 0.0
2016-Apr-26 14:33N 34°07' E 135°07'0 0.0
2016-Apr-26 13:33N 34°07' E 135°07'0 0.0
2016-Apr-26 12:33N 34°07' E 135°07'0 0.0
2016-Apr-26 11:33N 34°07' E 135°07'0 0.0
2016-Apr-26 10:33N 34°07' E 135°07'0 0.0
2016-Apr-26 09:33N 34°07' E 135°07'0 0.0
2016-Apr-26 08:33N 34°07' E 135°07'0 0.0
2016-Apr-26 07:33N 34°07' E 135°07'0 0.0
2016-Apr-26 06:33N 34°07' E 135°07'0 0.0
2016-Apr-26 05:33N 34°07' E 135°07'0 0.0
2016-Apr-26 04:28N 34°07' E 135°07'0 0.0
2016-Apr-26 03:30N 34°07' E 135°07'0 0.0
2016-Apr-26 02:33N 34°07' E 135°07'  
2016-Apr-23 19:33N 35°02' E 139°33'1312.8
2016-Apr-23 18:33N 35°10' E 139°45'1211.8
2016-Apr-23 17:33N 35°22' E 139°42'1212.2
2016-Apr-23 16:33N 35°30' E 139°53'7 7.4
2016-Apr-23 15:34N 35°31' E 140°02'0 0.0
2016-Apr-23 14:33N 35°31' E 140°02'0 0.0
2016-Apr-23 13:34N 35°31' E 140°02'0 0.0
2016-Apr-23 12:33N 35°31' E 140°02'1 1.4
2016-Apr-23 11:33N 35°32' E 140°01'0 0.1
2016-Apr-23 10:33N 35°32' E 140°01'0 0.0
2016-Apr-23 09:33N 35°32' E 140°01'0 0.0
2016-Apr-23 08:33N 35°32' E 140°01'0 0.0
2016-Apr-23 07:33N 35°32' E 140°01'0 0.1
2016-Apr-23 06:33N 35°32' E 140°01'0 0.0
2016-Apr-23 05:33N 35°32' E 140°01'0 0.0
2016-Apr-23 04:33N 35°32' E 140°01'0 0.0
2016-Apr-23 03:33N 35°32' E 140°01'0 0.0
2016-Apr-23 02:33N 35°32' E 140°01'2 1.6
2016-Apr-23 01:33N 35°32' E 140°03'0 0.1
2016-Apr-23 00:33N 35°32' E 140°03'0 0.0
2016-Apr-22 23:33N 35°32' E 140°03'0 0.1
2016-Apr-22 22:33N 35°32' E 140°03'3 2.7
2016-Apr-22 21:33N 35°33' E 140°00'0 0.0
2016-Apr-22 20:33N 35°33' E 140°00'0 0.0
2016-Apr-22 19:33N 35°33' E 140°00'0 0.0
2016-Apr-22 18:33N 35°33' E 140°00'0 0.0
2016-Apr-22 17:33N 35°33' E 140°00'0 0.0
2016-Apr-22 16:33N 35°33' E 140°00'0 0.0
2016-Apr-22 15:33N 35°33' E 140°00'7 6.9
2016-Apr-22 14:33N 35°29' E 139°53'1212.4
2016-Apr-22 13:33N 35°19' E 139°44'1211.7
2016-Apr-22 12:33N 35°07' E 139°45'6612.0
2016-Apr-22 07:04N 34°33' E 138°37'  
2016-Apr-19 03:18N 35°11' E 139°45'810.9
2016-Apr-19 02:33N 35°19' E 139°43'1111.3
2016-Apr-19 01:33N 35°30' E 139°48'1 1.2
2016-Apr-19 00:34N 35°31' E 139°46'0 0.0
2016-Apr-18 23:33N 35°31' E 139°46'0 0.0
2016-Apr-18 22:34N 35°31' E 139°46'  

Dump ship's entire track history